sensor_id;sensor_type;location;lat;lon;timestamp;temperature;humidity
5011;DHT22;2524;54.364;10.072;2023-03-11T00:00:25;2.60;99.90
5011;DHT22;2524;54.364;10.072;2023-03-11T00:02:53;2.50;99.90
5011;DHT22;2524;54.364;10.072;2023-03-11T00:05:26;2.50;99.90
5011;DHT22;2524;54.364;10.072;2023-03-11T00:07:52;2.30;99.90
5011;DHT22;2524;54.364;10.072;2023-03-11T00:10:30;2.50;99.90
5011;DHT22;2524;54.364;10.072;2023-03-11T00:12:58;2.40;99.90
5011;DHT22;2524;54.364;10.072;2023-03-11T00:15:24;2.50;99.90
5011;DHT22;2524;54.364;10.072;2023-03-11T00:17:50;2.40;99.90
5011;DHT22;2524;54.364;10.072;2023-03-11T00:20:18;2.10;99.90
5011;DHT22;2524;54.364;10.072;2023-03-11T00:22:45;2.10;99.90
5011;DHT22;2524;54.364;10.072;2023-03-11T00:25:11;2.40;99.90
5011;DHT22;2524;54.364;10.072;2023-03-11T00:27:37;2.40;99.90
5011;DHT22;2524;54.364;10.072;2023-03-11T00:30:03;2.30;99.90
5011;DHT22;2524;54.364;10.072;2023-03-11T00:32:28;2.40;99.90
5011;DHT22;2524;54.364;10.072;2023-03-11T00:34:54;2.20;99.90
5011;DHT22;2524;54.364;10.072;2023-03-11T00:37:19;2.40;99.90
5011;DHT22;2524;54.364;10.072;2023-03-11T00:39:45;2.10;99.90
5011;DHT22;2524;54.364;10.072;2023-03-11T00:42:11;2.20;99.90
5011;DHT22;2524;54.364;10.072;2023-03-11T00:44:36;2.00;99.90
5011;DHT22;2524;54.364;10.072;2023-03-11T00:47:02;2.20;99.90
5011;DHT22;2524;54.364;10.072;2023-03-11T00:49:27;2.20;99.90
5011;DHT22;2524;54.364;10.072;2023-03-11T00:51:53;2.20;99.90
5011;DHT22;2524;54.364;10.072;2023-03-11T00:54:18;2.00;99.90
5011;DHT22;2524;54.364;10.072;2023-03-11T00:56:44;2.00;99.90
5011;DHT22;2524;54.364;10.072;2023-03-11T00:59:09;2.20;99.90
5011;DHT22;2524;54.364;10.072;2023-03-11T01:01:35;2.00;99.90
5011;DHT22;2524;54.364;10.072;2023-03-11T01:04:01;2.10;99.90
5011;DHT22;2524;54.364;10.072;2023-03-11T01:06:26;2.00;99.90
5011;DHT22;2524;54.364;10.072;2023-03-11T01:08:52;2.00;99.90
5011;DHT22;2524;54.364;10.072;2023-03-11T01:11:17;2.00;99.90
5011;DHT22;2524;54.364;10.072;2023-03-11T01:13:43;2.10;99.90
5011;DHT22;2524;54.364;10.072;2023-03-11T01:16:08;2.00;99.90
5011;DHT22;2524;54.364;10.072;2023-03-11T01:18:34;2.30;99.90
5011;DHT22;2524;54.364;10.072;2023-03-11T01:21:00;1.90;99.90
5011;DHT22;2524;54.364;10.072;2023-03-11T01:23:26;2.10;99.90
5011;DHT22;2524;54.364;10.072;2023-03-11T01:25:51;2.00;99.90
5011;DHT22;2524;54.364;10.072;2023-03-11T01:28:17;2.00;99.90
5011;DHT22;2524;54.364;10.072;2023-03-11T01:30:43;2.20;99.90
5011;DHT22;2524;54.364;10.072;2023-03-11T01:33:15;2.10;99.90
5011;DHT22;2524;54.364;10.072;2023-03-11T01:35:41;2.10;99.90
5011;DHT22;2524;54.364;10.072;2023-03-11T01:38:08;1.90;99.90
5011;DHT22;2524;54.364;10.072;2023-03-11T01:40:35;2.10;99.90
5011;DHT22;2524;54.364;10.072;2023-03-11T01:43:02;2.20;99.90
5011;DHT22;2524;54.364;10.072;2023-03-11T01:45:30;1.90;99.90
5011;DHT22;2524;54.364;10.072;2023-03-11T01:47:57;2.00;99.90
5011;DHT22;2524;54.364;10.072;2023-03-11T01:50:24;2.20;99.90
5011;DHT22;2524;54.364;10.072;2023-03-11T01:52:52;2.30;99.90
5011;DHT22;2524;54.364;10.072;2023-03-11T01:55:18;2.20;99.90
5011;DHT22;2524;54.364;10.072;2023-03-11T01:57:45;1.90;99.90
5011;DHT22;2524;54.364;10.072;2023-03-11T02:00:12;2.10;99.90
5011;DHT22;2524;54.364;10.072;2023-03-11T02:02:54;2.00;99.90
5011;DHT22;2524;54.364;10.072;2023-03-11T02:05:22;1.90;99.90
5011;DHT22;2524;54.364;10.072;2023-03-11T02:07:49;2.10;99.90
5011;DHT22;2524;54.364;10.072;2023-03-11T02:10:15;1.90;99.90
5011;DHT22;2524;54.364;10.072;2023-03-11T02:12:42;2.10;99.90
5011;DHT22;2524;54.364;10.072;2023-03-11T02:15:11;2.00;99.90
5011;DHT22;2524;54.364;10.072;2023-03-11T02:17:39;1.90;99.90
5011;DHT22;2524;54.364;10.072;2023-03-11T02:22:47;2.20;99.90
5011;DHT22;2524;54.364;10.072;2023-03-11T02:27:58;2.00;99.90
5011;DHT22;2524;54.364;10.072;2023-03-11T02:30:26;2.10;99.90
5011;DHT22;2524;54.364;10.072;2023-03-11T02:32:53;1.90;99.90
5011;DHT22;2524;54.364;10.072;2023-03-11T02:35:20;1.90;99.90
5011;DHT22;2524;54.364;10.072;2023-03-11T02:37:48;1.90;99.90
5011;DHT22;2524;54.364;10.072;2023-03-11T02:42:50;2.00;99.90
5011;DHT22;2524;54.364;10.072;2023-03-11T02:45:18;1.80;99.90
5011;DHT22;2524;54.364;10.072;2023-03-11T02:47:45;1.70;99.90
5011;DHT22;2524;54.364;10.072;2023-03-11T02:50:14;1.70;99.90
5011;DHT22;2524;54.364;10.072;2023-03-11T02:52:40;1.80;99.90
5011;DHT22;2524;54.364;10.072;2023-03-11T02:55:06;1.70;99.90
5011;DHT22;2524;54.364;10.072;2023-03-11T02:57:32;1.60;99.90
5011;DHT22;2524;54.364;10.072;2023-03-11T02:59:58;1.70;99.90
5011;DHT22;2524;54.364;10.072;2023-03-11T03:02:26;1.80;99.90
5011;DHT22;2524;54.364;10.072;2023-03-11T03:04:52;1.70;99.90
5011;DHT22;2524;54.364;10.072;2023-03-11T03:07:17;1.60;99.90
5011;DHT22;2524;54.364;10.072;2023-03-11T03:09:44;1.80;99.90
5011;DHT22;2524;54.364;10.072;2023-03-11T03:12:09;1.80;99.90
5011;DHT22;2524;54.364;10.072;2023-03-11T03:14:35;1.80;99.90
5011;DHT22;2524;54.364;10.072;2023-03-11T03:17:01;1.60;99.90
5011;DHT22;2524;54.364;10.072;2023-03-11T03:19:26;1.80;99.90
5011;DHT22;2524;54.364;10.072;2023-03-11T03:21:52;1.80;99.90
5011;DHT22;2524;54.364;10.072;2023-03-11T03:24:17;1.60;99.90
5011;DHT22;2524;54.364;10.072;2023-03-11T03:26:43;1.80;99.90
5011;DHT22;2524;54.364;10.072;2023-03-11T03:29:08;1.60;99.90
5011;DHT22;2524;54.364;10.072;2023-03-11T03:31:34;1.60;99.90
5011;DHT22;2524;54.364;10.072;2023-03-11T03:34:00;1.70;99.90
5011;DHT22;2524;54.364;10.072;2023-03-11T03:36:25;1.70;99.90
5011;DHT22;2524;54.364;10.072;2023-03-11T03:38:55;1.50;99.90
5011;DHT22;2524;54.364;10.072;2023-03-11T03:41:21;1.60;99.90
5011;DHT22;2524;54.364;10.072;2023-03-11T03:43:47;1.70;99.90
5011;DHT22;2524;54.364;10.072;2023-03-11T03:46:13;1.60;99.90
5011;DHT22;2524;54.364;10.072;2023-03-11T03:48:38;1.50;99.90
5011;DHT22;2524;54.364;10.072;2023-03-11T03:51:06;1.40;99.90
5011;DHT22;2524;54.364;10.072;2023-03-11T03:53:35;1.30;99.90
5011;DHT22;2524;54.364;10.072;2023-03-11T03:56:03;1.50;99.90
5011;DHT22;2524;54.364;10.072;2023-03-11T03:58:28;1.40;99.90
5011;DHT22;2524;54.364;10.072;2023-03-11T04:00:55;1.40;99.90
5011;DHT22;2524;54.364;10.072;2023-03-11T04:03:21;1.40;99.90
5011;DHT22;2524;54.364;10.072;2023-03-11T04:05:47;1.30;99.90
5011;DHT22;2524;54.364;10.072;2023-03-11T04:08:13;1.30;99.90
5011;DHT22;2524;54.364;10.072;2023-03-11T04:10:38;1.30;99.90
5011;DHT22;2524;54.364;10.072;2023-03-11T04:13:04;1.10;99.90
5011;DHT22;2524;54.364;10.072;2023-03-11T04:15:29;1.30;99.90
5011;DHT22;2524;54.364;10.072;2023-03-11T04:17:55;1.20;99.90
5011;DHT22;2524;54.364;10.072;2023-03-11T04:20:20;1.30;99.90
5011;DHT22;2524;54.364;10.072;2023-03-11T04:22:46;1.20;99.90
5011;DHT22;2524;54.364;10.072;2023-03-11T04:25:12;1.30;99.90
5011;DHT22;2524;54.364;10.072;2023-03-11T04:27:37;1.40;99.90
5011;DHT22;2524;54.364;10.072;2023-03-11T04:30:07;1.20;99.90
5011;DHT22;2524;54.364;10.072;2023-03-11T04:32:33;1.40;99.90
5011;DHT22;2524;54.364;10.072;2023-03-11T04:34:59;1.10;99.90
5011;DHT22;2524;54.364;10.072;2023-03-11T04:37:28;1.20;99.90
5011;DHT22;2524;54.364;10.072;2023-03-11T04:39:54;1.00;99.90
5011;DHT22;2524;54.364;10.072;2023-03-11T04:42:19;1.10;99.90
5011;DHT22;2524;54.364;10.072;2023-03-11T04:44:45;1.20;99.90
5011;DHT22;2524;54.364;10.072;2023-03-11T04:47:11;1.00;99.90
5011;DHT22;2524;54.364;10.072;2023-03-11T04:49:36;1.00;99.90
5011;DHT22;2524;54.364;10.072;2023-03-11T04:52:02;1.00;99.90
5011;DHT22;2524;54.364;10.072;2023-03-11T04:54:28;1.00;99.90
5011;DHT22;2524;54.364;10.072;2023-03-11T04:56:53;1.20;99.90
5011;DHT22;2524;54.364;10.072;2023-03-11T04:59:19;1.30;99.90
5011;DHT22;2524;54.364;10.072;2023-03-11T05:01:44;1.00;99.90
5011;DHT22;2524;54.364;10.072;2023-03-11T05:04:10;1.30;99.90
5011;DHT22;2524;54.364;10.072;2023-03-11T05:06:37;0.90;99.90
5011;DHT22;2524;54.364;10.072;2023-03-11T05:09:03;1.10;99.90
5011;DHT22;2524;54.364;10.072;2023-03-11T05:11:29;1.10;99.90
5011;DHT22;2524;54.364;10.072;2023-03-11T05:13:55;1.10;99.90
5011;DHT22;2524;54.364;10.072;2023-03-11T05:16:20;0.90;99.90
5011;DHT22;2524;54.364;10.072;2023-03-11T05:18:46;1.10;99.90
5011;DHT22;2524;54.364;10.072;2023-03-11T05:21:11;0.90;99.90
5011;DHT22;2524;54.364;10.072;2023-03-11T05:23:37;0.90;99.90
5011;DHT22;2524;54.364;10.072;2023-03-11T05:26:03;0.80;99.90
5011;DHT22;2524;54.364;10.072;2023-03-11T05:28:28;0.90;99.90
5011;DHT22;2524;54.364;10.072;2023-03-11T05:30:54;0.60;99.90
5011;DHT22;2524;54.364;10.072;2023-03-11T05:33:19;0.80;99.90
5011;DHT22;2524;54.364;10.072;2023-03-11T05:35:45;1.00;99.90
5011;DHT22;2524;54.364;10.072;2023-03-11T05:38:11;0.80;99.90
5011;DHT22;2524;54.364;10.072;2023-03-11T05:40:36;0.80;99.90
5011;DHT22;2524;54.364;10.072;2023-03-11T05:43:02;0.90;99.90
5011;DHT22;2524;54.364;10.072;2023-03-11T05:45:28;0.90;99.90
5011;DHT22;2524;54.364;10.072;2023-03-11T05:47:58;0.90;99.90
5011;DHT22;2524;54.364;10.072;2023-03-11T05:50:24;0.90;99.90
5011;DHT22;2524;54.364;10.072;2023-03-11T05:52:49;0.80;99.90
5011;DHT22;2524;54.364;10.072;2023-03-11T05:55:15;0.90;99.90
5011;DHT22;2524;54.364;10.072;2023-03-11T05:57:41;0.80;99.90
5011;DHT22;2524;54.364;10.072;2023-03-11T06:00:07;0.90;99.90
5011;DHT22;2524;54.364;10.072;2023-03-11T06:02:38;0.90;99.90
5011;DHT22;2524;54.364;10.072;2023-03-11T06:05:04;0.70;99.90
5011;DHT22;2524;54.364;10.072;2023-03-11T06:07:30;0.80;99.90
5011;DHT22;2524;54.364;10.072;2023-03-11T06:09:55;0.70;99.90
5011;DHT22;2524;54.364;10.072;2023-03-11T06:12:21;0.80;99.90
5011;DHT22;2524;54.364;10.072;2023-03-11T06:14:46;0.70;99.90
5011;DHT22;2524;54.364;10.072;2023-03-11T06:17:12;0.80;99.90
5011;DHT22;2524;54.364;10.072;2023-03-11T06:19:38;0.80;99.90
5011;DHT22;2524;54.364;10.072;2023-03-11T06:22:03;0.90;99.90
5011;DHT22;2524;54.364;10.072;2023-03-11T06:24:29;0.20;99.90
5011;DHT22;2524;54.364;10.072;2023-03-11T06:26:55;0.70;99.90
5011;DHT22;2524;54.364;10.072;2023-03-11T06:29:20;0.70;99.90
5011;DHT22;2524;54.364;10.072;2023-03-11T06:31:49;0.70;99.90
5011;DHT22;2524;54.364;10.072;2023-03-11T06:34:16;0.80;99.90
5011;DHT22;2524;54.364;10.072;2023-03-11T06:36:42;0.70;99.90
5011;DHT22;2524;54.364;10.072;2023-03-11T06:39:12;0.70;99.90
5011;DHT22;2524;54.364;10.072;2023-03-11T06:41:37;0.80;99.90
5011;DHT22;2524;54.364;10.072;2023-03-11T06:44:03;0.60;99.90
5011;DHT22;2524;54.364;10.072;2023-03-11T06:46:29;0.60;99.90
5011;DHT22;2524;54.364;10.072;2023-03-11T06:48:55;0.70;99.90
5011;DHT22;2524;54.364;10.072;2023-03-11T06:51:21;0.70;99.90
5011;DHT22;2524;54.364;10.072;2023-03-11T06:53:48;0.70;99.90
5011;DHT22;2524;54.364;10.072;2023-03-11T06:56:15;0.80;99.90
5011;DHT22;2524;54.364;10.072;2023-03-11T06:58:41;0.90;99.90
5011;DHT22;2524;54.364;10.072;2023-03-11T07:01:13;0.70;99.90
5011;DHT22;2524;54.364;10.072;2023-03-11T07:03:40;0.90;99.90
5011;DHT22;2524;54.364;10.072;2023-03-11T07:06:17;0.90;99.90
5011;DHT22;2524;54.364;10.072;2023-03-11T07:08:45;1.00;99.90
5011;DHT22;2524;54.364;10.072;2023-03-11T07:11:17;0.90;99.90
5011;DHT22;2524;54.364;10.072;2023-03-11T07:13:43;0.80;99.90
5011;DHT22;2524;54.364;10.072;2023-03-11T07:16:12;0.90;99.90
5011;DHT22;2524;54.364;10.072;2023-03-11T07:18:40;0.90;99.90
5011;DHT22;2524;54.364;10.072;2023-03-11T07:21:07;1.10;99.90
5011;DHT22;2524;54.364;10.072;2023-03-11T07:23:34;1.10;99.90
5011;DHT22;2524;54.364;10.072;2023-03-11T07:26:10;0.70;99.90
5011;DHT22;2524;54.364;10.072;2023-03-11T07:28:36;1.10;99.90
5011;DHT22;2524;54.364;10.072;2023-03-11T07:31:10;1.20;99.90
5011;DHT22;2524;54.364;10.072;2023-03-11T07:33:52;1.10;99.90
5011;DHT22;2524;54.364;10.072;2023-03-11T07:36:21;1.30;99.90
5011;DHT22;2524;54.364;10.072;2023-03-11T07:38:53;1.10;99.90
5011;DHT22;2524;54.364;10.072;2023-03-11T07:41:19;1.20;99.90
5011;DHT22;2524;54.364;10.072;2023-03-11T07:43:45;1.30;99.90
5011;DHT22;2524;54.364;10.072;2023-03-11T07:46:15;1.30;99.90
5011;DHT22;2524;54.364;10.072;2023-03-11T07:48:43;1.10;99.90
5011;DHT22;2524;54.364;10.072;2023-03-11T07:51:32;1.30;99.90
5011;DHT22;2524;54.364;10.072;2023-03-11T07:53:57;1.50;99.90
5011;DHT22;2524;54.364;10.072;2023-03-11T07:56:26;1.40;99.90
5011;DHT22;2524;54.364;10.072;2023-03-11T07:59:01;1.30;99.90
5011;DHT22;2524;54.364;10.072;2023-03-11T08:01:29;1.40;99.90
5011;DHT22;2524;54.364;10.072;2023-03-11T08:04:05;1.50;99.90
5011;DHT22;2524;54.364;10.072;2023-03-11T08:06:32;1.30;99.90
5011;DHT22;2524;54.364;10.072;2023-03-11T08:09:00;1.70;99.90
5011;DHT22;2524;54.364;10.072;2023-03-11T08:11:26;1.10;99.90
5011;DHT22;2524;54.364;10.072;2023-03-11T08:13:52;1.70;99.90
5011;DHT22;2524;54.364;10.072;2023-03-11T08:16:20;1.60;99.90
5011;DHT22;2524;54.364;10.072;2023-03-11T08:18:48;1.80;99.90
5011;DHT22;2524;54.364;10.072;2023-03-11T08:21:16;1.90;99.90
5011;DHT22;2524;54.364;10.072;2023-03-11T08:23:42;1.80;99.90
5011;DHT22;2524;54.364;10.072;2023-03-11T08:26:12;1.80;99.90
5011;DHT22;2524;54.364;10.072;2023-03-11T08:28:39;2.00;99.90
5011;DHT22;2524;54.364;10.072;2023-03-11T08:31:18;2.00;99.90
5011;DHT22;2524;54.364;10.072;2023-03-11T08:33:46;2.00;99.90
5011;DHT22;2524;54.364;10.072;2023-03-11T08:36:14;2.10;99.90
5011;DHT22;2524;54.364;10.072;2023-03-11T08:38:43;2.30;99.90
5011;DHT22;2524;54.364;10.072;2023-03-11T08:41:08;2.20;99.90
5011;DHT22;2524;54.364;10.072;2023-03-11T08:43:37;2.30;99.90
5011;DHT22;2524;54.364;10.072;2023-03-11T08:46:04;1.80;99.90
5011;DHT22;2524;54.364;10.072;2023-03-11T08:48:36;2.50;99.90
5011;DHT22;2524;54.364;10.072;2023-03-11T08:51:11;2.30;99.90
5011;DHT22;2524;54.364;10.072;2023-03-11T08:53:37;2.50;99.90
5011;DHT22;2524;54.364;10.072;2023-03-11T08:56:04;2.00;99.90
5011;DHT22;2524;54.364;10.072;2023-03-11T08:58:29;2.70;99.90
5011;DHT22;2524;54.364;10.072;2023-03-11T09:00:55;2.70;99.90
5011;DHT22;2524;54.364;10.072;2023-03-11T09:03:21;2.70;99.90
5011;DHT22;2524;54.364;10.072;2023-03-11T09:05:47;2.80;99.90
5011;DHT22;2524;54.364;10.072;2023-03-11T09:08:13;2.80;99.90
5011;DHT22;2524;54.364;10.072;2023-03-11T09:10:39;2.50;99.90
5011;DHT22;2524;54.364;10.072;2023-03-11T09:13:05;2.90;99.90
5011;DHT22;2524;54.364;10.072;2023-03-11T09:15:30;3.20;99.90
5011;DHT22;2524;54.364;10.072;2023-03-11T09:17:56;2.80;99.90
5011;DHT22;2524;54.364;10.072;2023-03-11T09:20:22;3.40;99.90
5011;DHT22;2524;54.364;10.072;2023-03-11T09:22:47;3.50;99.90
5011;DHT22;2524;54.364;10.072;2023-03-11T09:25:13;3.40;99.90
5011;DHT22;2524;54.364;10.072;2023-03-11T09:27:39;3.10;99.90
5011;DHT22;2524;54.364;10.072;2023-03-11T09:30:06;3.80;99.90
5011;DHT22;2524;54.364;10.072;2023-03-11T09:32:32;3.80;99.90
5011;DHT22;2524;54.364;10.072;2023-03-11T09:34:57;3.70;99.90
5011;DHT22;2524;54.364;10.072;2023-03-11T09:37:24;3.40;99.90
5011;DHT22;2524;54.364;10.072;2023-03-11T09:39:50;4.00;99.90
5011;DHT22;2524;54.364;10.072;2023-03-11T09:42:22;3.80;99.90
5011;DHT22;2524;54.364;10.072;2023-03-11T09:45:13;3.80;99.90
5011;DHT22;2524;54.364;10.072;2023-03-11T09:50:59;4.50;99.90
5011;DHT22;2524;54.364;10.072;2023-03-11T09:53:44;4.60;99.90
5011;DHT22;2524;54.364;10.072;2023-03-11T09:56:14;4.50;99.90
5011;DHT22;2524;54.364;10.072;2023-03-11T09:58:59;4.50;99.90
5011;DHT22;2524;54.364;10.072;2023-03-11T10:01:35;4.80;99.90
5011;DHT22;2524;54.364;10.072;2023-03-11T10:04:37;4.70;99.90
5011;DHT22;2524;54.364;10.072;2023-03-11T10:07:11;4.80;99.90
5011;DHT22;2524;54.364;10.072;2023-03-11T10:09:53;4.40;99.90
5011;DHT22;2524;54.364;10.072;2023-03-11T10:23:53;5.10;99.90
5011;DHT22;2524;54.364;10.072;2023-03-11T10:26:38;5.30;99.90
5011;DHT22;2524;54.364;10.072;2023-03-11T10:29:28;5.40;99.90
5011;DHT22;2524;54.364;10.072;2023-03-11T10:34:36;5.50;99.90
5011;DHT22;2524;54.364;10.072;2023-03-11T10:37:34;5.60;99.90
5011;DHT22;2524;54.364;10.072;2023-03-11T10:40:25;5.70;99.90
5011;DHT22;2524;54.364;10.072;2023-03-11T10:42:56;5.80;99.90
5011;DHT22;2524;54.364;10.072;2023-03-11T10:45:26;5.80;99.90
5011;DHT22;2524;54.364;10.072;2023-03-11T10:47:55;5.90;99.90
5011;DHT22;2524;54.364;10.072;2023-03-11T10:50:22;5.90;99.90
5011;DHT22;2524;54.364;10.072;2023-03-11T10:53:09;6.00;99.90
5011;DHT22;2524;54.364;10.072;2023-03-11T10:55:47;6.00;99.90
5011;DHT22;2524;54.364;10.072;2023-03-11T10:58:18;6.00;99.90
5011;DHT22;2524;54.364;10.072;2023-03-11T11:01:03;6.00;99.90
5011;DHT22;2524;54.364;10.072;2023-03-11T11:03:34;6.10;99.90
5011;DHT22;2524;54.364;10.072;2023-03-11T11:06:04;6.10;99.90
5011;DHT22;2524;54.364;10.072;2023-03-11T11:08:32;6.10;99.90
5011;DHT22;2524;54.364;10.072;2023-03-11T11:11:21;6.20;99.90
5011;DHT22;2524;54.364;10.072;2023-03-11T11:13:57;6.20;99.90
5011;DHT22;2524;54.364;10.072;2023-03-11T11:16:23;6.30;99.90
5011;DHT22;2524;54.364;10.072;2023-03-11T11:18:59;6.30;99.90
5011;DHT22;2524;54.364;10.072;2023-03-11T11:21:31;6.40;99.90
5011;DHT22;2524;54.364;10.072;2023-03-11T11:27:15;6.50;99.90
5011;DHT22;2524;54.364;10.072;2023-03-11T11:29:42;6.40;99.90
5011;DHT22;2524;54.364;10.072;2023-03-11T11:34:40;6.50;99.90
5011;DHT22;2524;54.364;10.072;2023-03-11T11:37:11;6.50;99.90
5011;DHT22;2524;54.364;10.072;2023-03-11T11:39:50;6.60;99.90
5011;DHT22;2524;54.364;10.072;2023-03-11T11:42:18;6.70;99.90
5011;DHT22;2524;54.364;10.072;2023-03-11T11:44:47;6.90;99.90
5011;DHT22;2524;54.364;10.072;2023-03-11T11:47:25;7.00;99.90
5011;DHT22;2524;54.364;10.072;2023-03-11T11:49:55;7.00;99.90
5011;DHT22;2524;54.364;10.072;2023-03-11T11:52:24;7.00;99.90
5011;DHT22;2524;54.364;10.072;2023-03-11T11:54:52;7.00;99.90
5011;DHT22;2524;54.364;10.072;2023-03-11T11:57:21;7.00;99.40
5011;DHT22;2524;54.364;10.072;2023-03-11T11:59:47;7.10;99.90
5011;DHT22;2524;54.364;10.072;2023-03-11T12:08:16;7.10;98.70
5011;DHT22;2524;54.364;10.072;2023-03-11T12:11:03;7.10;96.70
5011;DHT22;2524;54.364;10.072;2023-03-11T12:13:45;7.20;99.30
5011;DHT22;2524;54.364;10.072;2023-03-11T12:19:05;7.10;97.60
5011;DHT22;2524;54.364;10.072;2023-03-11T12:27:20;7.00;97.80
5011;DHT22;2524;54.364;10.072;2023-03-11T12:29:54;7.00;97.80
5011;DHT22;2524;54.364;10.072;2023-03-11T12:32:36;7.00;97.80
5011;DHT22;2524;54.364;10.072;2023-03-11T12:35:33;6.90;96.80
5011;DHT22;2524;54.364;10.072;2023-03-11T12:46:11;6.90;96.70
5011;DHT22;2524;54.364;10.072;2023-03-11T12:56:51;6.90;96.50
5011;DHT22;2524;54.364;10.072;2023-03-11T13:10:38;6.90;96.20
5011;DHT22;2524;54.364;10.072;2023-03-11T13:15:50;7.00;95.90
5011;DHT22;2524;54.364;10.072;2023-03-11T13:18:22;6.90;95.70
5011;DHT22;2524;54.364;10.072;2023-03-11T13:20:52;6.90;95.70
5011;DHT22;2524;54.364;10.072;2023-03-11T13:23:31;6.80;95.60
5011;DHT22;2524;54.364;10.072;2023-03-11T13:33:52;6.90;95.50
5011;DHT22;2524;54.364;10.072;2023-03-11T13:41:35;6.70;96.50
5011;DHT22;2524;54.364;10.072;2023-03-11T13:44:34;6.70;96.70
5011;DHT22;2524;54.364;10.072;2023-03-11T13:47:17;6.80;96.30
5011;DHT22;2524;54.364;10.072;2023-03-11T13:50:04;6.60;96.20
5011;DHT22;2524;54.364;10.072;2023-03-11T13:52:45;6.50;96.00
5011;DHT22;2524;54.364;10.072;2023-03-11T13:55:20;6.40;95.70
5011;DHT22;2524;54.364;10.072;2023-03-11T13:57:51;6.40;95.70
5011;DHT22;2524;54.364;10.072;2023-03-11T14:00:19;6.40;95.70
5011;DHT22;2524;54.364;10.072;2023-03-11T14:03:14;6.20;95.70
5011;DHT22;2524;54.364;10.072;2023-03-11T14:05:46;6.10;97.10
5011;DHT22;2524;54.364;10.072;2023-03-11T14:10:56;6.00;96.70
5011;DHT22;2524;54.364;10.072;2023-03-11T14:13:24;5.90;98.50
5011;DHT22;2524;54.364;10.072;2023-03-11T14:16:09;5.90;98.40
5011;DHT22;2524;54.364;10.072;2023-03-11T14:18:41;6.00;99.90
5011;DHT22;2524;54.364;10.072;2023-03-11T14:21:15;6.10;99.90
5011;DHT22;2524;54.364;10.072;2023-03-11T14:23:47;6.20;99.70
5011;DHT22;2524;54.364;10.072;2023-03-11T14:26:33;6.20;99.30
5011;DHT22;2524;54.364;10.072;2023-03-11T14:29:08;6.30;99.70
5011;DHT22;2524;54.364;10.072;2023-03-11T14:31:42;6.20;99.10
5011;DHT22;2524;54.364;10.072;2023-03-11T14:34:21;6.30;99.90
5011;DHT22;2524;54.364;10.072;2023-03-11T14:36:58;6.30;99.90
5011;DHT22;2524;54.364;10.072;2023-03-11T14:39:37;6.40;99.90
5011;DHT22;2524;54.364;10.072;2023-03-11T14:44:57;6.50;99.90
5011;DHT22;2524;54.364;10.072;2023-03-11T14:47:37;6.70;99.90
5011;DHT22;2524;54.364;10.072;2023-03-11T14:50:16;6.70;99.90
5011;DHT22;2524;54.364;10.072;2023-03-11T14:58:13;6.80;99.90
5011;DHT22;2524;54.364;10.072;2023-03-11T15:00:45;6.90;99.90
5011;DHT22;2524;54.364;10.072;2023-03-11T15:03:22;6.70;99.90
5011;DHT22;2524;54.364;10.072;2023-03-11T15:06:15;6.70;99.90
5011;DHT22;2524;54.364;10.072;2023-03-11T15:08:45;6.60;99.90
5011;DHT22;2524;54.364;10.072;2023-03-11T15:13:39;6.40;99.90
5011;DHT22;2524;54.364;10.072;2023-03-11T15:16:18;6.30;99.90
5011;DHT22;2524;54.364;10.072;2023-03-11T15:18:45;6.30;99.90
5011;DHT22;2524;54.364;10.072;2023-03-11T15:21:16;6.20;99.90
5011;DHT22;2524;54.364;10.072;2023-03-11T15:24:01;6.20;99.90
5011;DHT22;2524;54.364;10.072;2023-03-11T15:26:32;6.10;99.90
5011;DHT22;2524;54.364;10.072;2023-03-11T15:29:01;6.00;99.90
5011;DHT22;2524;54.364;10.072;2023-03-11T15:31:30;6.00;99.90
5011;DHT22;2524;54.364;10.072;2023-03-11T15:34:10;6.00;99.90
5011;DHT22;2524;54.364;10.072;2023-03-11T15:36:38;6.00;99.90
5011;DHT22;2524;54.364;10.072;2023-03-11T15:39:20;6.00;99.90
5011;DHT22;2524;54.364;10.072;2023-03-11T15:42:11;6.10;99.90
5011;DHT22;2524;54.364;10.072;2023-03-11T15:47:20;6.30;99.90
5011;DHT22;2524;54.364;10.072;2023-03-11T15:49:47;6.40;99.90
5011;DHT22;2524;54.364;10.072;2023-03-11T15:52:14;6.50;99.90
5011;DHT22;2524;54.364;10.072;2023-03-11T15:54:39;6.60;99.90
5011;DHT22;2524;54.364;10.072;2023-03-11T15:57:16;6.50;99.90
5011;DHT22;2524;54.364;10.072;2023-03-11T15:59:47;6.50;99.90
5011;DHT22;2524;54.364;10.072;2023-03-11T16:02:25;6.30;99.90
5011;DHT22;2524;54.364;10.072;2023-03-11T16:04:51;6.10;99.90
5011;DHT22;2524;54.364;10.072;2023-03-11T16:07:17;5.80;99.90
5011;DHT22;2524;54.364;10.072;2023-03-11T16:09:43;5.70;99.90
5011;DHT22;2524;54.364;10.072;2023-03-11T16:12:15;5.80;99.90
5011;DHT22;2524;54.364;10.072;2023-03-11T16:14:41;5.90;99.90
5011;DHT22;2524;54.364;10.072;2023-03-11T16:17:07;6.00;99.90
5011;DHT22;2524;54.364;10.072;2023-03-11T16:19:32;6.20;99.90
5011;DHT22;2524;54.364;10.072;2023-03-11T16:21:58;6.20;99.90
5011;DHT22;2524;54.364;10.072;2023-03-11T16:24:30;6.10;99.90
5011;DHT22;2524;54.364;10.072;2023-03-11T16:26:56;6.20;99.90
5011;DHT22;2524;54.364;10.072;2023-03-11T16:29:21;6.10;99.90
5011;DHT22;2524;54.364;10.072;2023-03-11T16:31:48;5.90;99.90
5011;DHT22;2524;54.364;10.072;2023-03-11T16:34:13;5.80;99.90
5011;DHT22;2524;54.364;10.072;2023-03-11T16:36:39;5.80;99.90
5011;DHT22;2524;54.364;10.072;2023-03-11T16:39:05;5.60;99.90
5011;DHT22;2524;54.364;10.072;2023-03-11T16:41:40;5.60;99.90
5011;DHT22;2524;54.364;10.072;2023-03-11T16:44:06;5.50;99.90
5011;DHT22;2524;54.364;10.072;2023-03-11T16:46:32;5.40;99.90
5011;DHT22;2524;54.364;10.072;2023-03-11T16:48:57;5.30;99.90
5011;DHT22;2524;54.364;10.072;2023-03-11T16:51:23;5.30;99.90
5011;DHT22;2524;54.364;10.072;2023-03-11T16:53:49;5.20;99.90
5011;DHT22;2524;54.364;10.072;2023-03-11T16:56:14;5.10;99.90
5011;DHT22;2524;54.364;10.072;2023-03-11T16:58:42;5.20;99.90
5011;DHT22;2524;54.364;10.072;2023-03-11T17:01:11;5.10;99.90
5011;DHT22;2524;54.364;10.072;2023-03-11T17:03:36;5.10;99.90
5011;DHT22;2524;54.364;10.072;2023-03-11T17:06:04;5.10;99.90
5011;DHT22;2524;54.364;10.072;2023-03-11T17:08:30;5.00;99.90
5011;DHT22;2524;54.364;10.072;2023-03-11T17:10:56;5.00;99.90
5011;DHT22;2524;54.364;10.072;2023-03-11T17:13:22;5.00;99.90
5011;DHT22;2524;54.364;10.072;2023-03-11T17:16:01;5.00;99.90
5011;DHT22;2524;54.364;10.072;2023-03-11T17:18:27;5.00;99.90
5011;DHT22;2524;54.364;10.072;2023-03-11T17:20:53;5.00;99.90
5011;DHT22;2524;54.364;10.072;2023-03-11T17:23:19;4.90;99.90
5011;DHT22;2524;54.364;10.072;2023-03-11T17:25:45;4.90;99.90
5011;DHT22;2524;54.364;10.072;2023-03-11T17:28:11;4.90;99.90
5011;DHT22;2524;54.364;10.072;2023-03-11T17:30:41;4.90;99.90
5011;DHT22;2524;54.364;10.072;2023-03-11T17:33:07;4.80;99.90
5011;DHT22;2524;54.364;10.072;2023-03-11T17:35:33;4.80;99.90
5011;DHT22;2524;54.364;10.072;2023-03-11T17:37:59;4.80;99.90
5011;DHT22;2524;54.364;10.072;2023-03-11T17:40:24;4.70;99.90
5011;DHT22;2524;54.364;10.072;2023-03-11T17:42:51;4.70;99.90
5011;DHT22;2524;54.364;10.072;2023-03-11T17:45:17;4.60;99.90
5011;DHT22;2524;54.364;10.072;2023-03-11T17:47:42;4.60;99.90
5011;DHT22;2524;54.364;10.072;2023-03-11T17:50:09;4.50;99.90
5011;DHT22;2524;54.364;10.072;2023-03-11T17:52:35;4.50;99.90
5011;DHT22;2524;54.364;10.072;2023-03-11T17:55:00;4.50;99.90
5011;DHT22;2524;54.364;10.072;2023-03-11T17:57:26;4.50;99.90
5011;DHT22;2524;54.364;10.072;2023-03-11T17:59:51;4.50;99.90